SKW3695 KLAX-KEGE
Flight info
| Callsign | SKW3695 |
|---|---|
| Flight time | N/A |
| Altitude | 37000 |
| Route | ORCKA5 LAS J146 DICEE IBSKI AAVON1 |
| Aircraft | E75L/M-SDE3GILORVW/S |
Departure
| Time | 2026-05-05 22:45 |
|---|---|
| Airport | Los Angeles International Airport (KLAX) |
Arrival
| Time | N/A |
|---|---|
| Airport | Eagle County Regional Airport (KEGE) |
| Time | Latitude | Longitude | Altitude | Speed | Heading |
|---|---|---|---|---|---|
| 2026-05-05 22:08 | 33.94168 | -118.39773 | 123 ft | 0 kts | 83° |
| 2026-05-05 22:36 | 33.94168 | -118.39772 | 123 ft | 0 kts | 83° |
| 2026-05-05 22:37 | 33.94167 | -118.39781 | 123 ft | 2 kts | 83° |
| 2026-05-05 22:37 | 33.94165 | -118.39799 | 123 ft | 2 kts | 83° |
| 2026-05-05 22:38 | 33.94165 | -118.39816 | 123 ft | 2 kts | 105° |
| 2026-05-05 22:38 | 33.94172 | -118.39831 | 123 ft | 2 kts | 135° |
| 2026-05-05 22:38 | 33.94184 | -118.39841 | 123 ft | 2 kts | 165° |
| 2026-05-05 22:38 | 33.94183 | -118.39841 | 123 ft | 3 kts | 170° |
| 2026-05-05 22:39 | 33.94154 | -118.39836 | 123 ft | 2 kts | 173° |
| 2026-05-05 22:39 | 33.94139 | -118.39834 | 123 ft | 0 kts | 174° |
| 2026-05-05 22:39 | 33.94138 | -118.39834 | 123 ft | 0 kts | 174° |
| 2026-05-05 22:41 | 33.94137 | -118.39834 | 123 ft | 0 kts | 175° |
| 2026-05-05 22:41 | 33.94123 | -118.39832 | 123 ft | 3 kts | 175° |
| 2026-05-05 22:41 | 33.94091 | -118.39829 | 122 ft | 5 kts | 176° |
| 2026-05-05 22:42 | 33.94040 | -118.39825 | 122 ft | 8 kts | 178° |
| 2026-05-05 22:42 | 33.93971 | -118.39815 | 119 ft | 11 kts | 171° |
| 2026-05-05 22:42 | 33.93908 | -118.39752 | 118 ft | 13 kts | 104° |
| 2026-05-05 22:42 | 33.93917 | -118.39627 | 114 ft | 17 kts | 83° |
| 2026-05-05 22:43 | 33.93933 | -118.39463 | 111 ft | 21 kts | 83° |
| 2026-05-05 22:43 | 33.93953 | -118.39275 | 109 ft | 23 kts | 83° |
| 2026-05-05 22:43 | 33.93973 | -118.39071 | 107 ft | 25 kts | 83° |
| 2026-05-05 22:43 | 33.93996 | -118.38856 | 106 ft | 26 kts | 83° |
| 2026-05-05 22:44 | 33.94017 | -118.38643 | 105 ft | 24 kts | 83° |
| 2026-05-05 22:44 | 33.94039 | -118.38448 | 104 ft | 22 kts | 81° |
| 2026-05-05 22:44 | 33.94007 | -118.38326 | 103 ft | 16 kts | 169° |
| 2026-05-05 22:44 | 33.93943 | -118.38419 | 103 ft | 20 kts | 263° |
| 2026-05-05 22:45 | 33.93900 | -118.38840 | 106 ft | 81 kts | 262° |
| 2026-05-05 22:45 | 33.93811 | -118.39726 | 115 ft | 131 kts | 262° |
| 2026-05-05 22:45 | 33.93702 | -118.40906 | 370 ft | 145 kts | 262° |
| 2026-05-05 22:45 | 33.93579 | -118.42134 | 860 ft | 151 kts | 261° |
| 2026-05-05 22:46 | 33.93444 | -118.43384 | 1421 ft | 157 kts | 262° |
| 2026-05-05 22:46 | 33.93296 | -118.44833 | 1650 ft | 190 kts | 263° |
| 2026-05-05 22:46 | 33.93126 | -118.46557 | 1874 ft | 225 kts | 263° |
| 2026-05-05 22:46 | 33.92929 | -118.48557 | 2189 ft | 254 kts | 263° |
| 2026-05-05 22:47 | 33.92690 | -118.50684 | 2916 ft | 263 kts | 255° |
| 2026-05-05 22:47 | 33.91720 | -118.52522 | 3825 ft | 266 kts | 220° |
| 2026-05-05 22:47 | 33.90039 | -118.53362 | 4661 ft | 272 kts | 186° |
| 2026-05-05 22:47 | 33.88198 | -118.52924 | 5410 ft | 278 kts | 150° |
| 2026-05-05 22:48 | 33.86611 | -118.51563 | 6197 ft | 281 kts | 141° |
| 2026-05-05 22:48 | 33.85069 | -118.50114 | 6968 ft | 284 kts | 138° |
| 2026-05-05 22:48 | 33.83956 | -118.48209 | 7650 ft | 285 kts | 105° |
| 2026-05-05 22:48 | 33.83886 | -118.45879 | 8355 ft | 281 kts | 71° |
| 2026-05-05 22:49 | 33.84867 | -118.43938 | 9057 ft | 277 kts | 38° |
| 2026-05-05 22:49 | 33.86580 | -118.42967 | 9753 ft | 275 kts | 6° |
| 2026-05-05 22:49 | 33.88459 | -118.43161 | 10414 ft | 277 kts | 349° |
| 2026-05-05 22:49 | 33.90408 | -118.43510 | 10858 ft | 289 kts | 353° |
| 2026-05-05 22:50 | 33.92447 | -118.43367 | 11102 ft | 307 kts | 18° |
| 2026-05-05 22:50 | 33.94270 | -118.41941 | 11416 ft | 326 kts | 47° |
| 2026-05-05 22:50 | 33.95549 | -118.39598 | 11785 ft | 339 kts | 57° |
| 2026-05-05 22:50 | 33.96823 | -118.37178 | 12138 ft | 350 kts | 55° |
| 2026-05-05 22:51 | 33.98183 | -118.34711 | 12583 ft | 358 kts | 54° |
| 2026-05-05 22:51 | 33.99579 | -118.32219 | 13142 ft | 361 kts | 54° |
| 2026-05-05 22:51 | 34.00989 | -118.29720 | 13770 ft | 362 kts | 54° |
| 2026-05-05 22:51 | 34.02407 | -118.27219 | 14390 ft | 364 kts | 54° |
| 2026-05-05 22:52 | 34.03839 | -118.24691 | 14970 ft | 366 kts | 54° |
| 2026-05-05 22:52 | 34.05277 | -118.22153 | 15520 ft | 369 kts | 54° |
| 2026-05-05 22:52 | 34.06721 | -118.19601 | 16059 ft | 372 kts | 54° |
| 2026-05-05 22:52 | 34.08174 | -118.17033 | 16613 ft | 374 kts | 54° |
| 2026-05-05 22:53 | 34.09651 | -118.14422 | 17150 ft | 377 kts | 54° |
| 2026-05-05 22:53 | 34.11142 | -118.11782 | 17677 ft | 380 kts | 54° |
| 2026-05-05 22:53 | 34.12617 | -118.09170 | 18216 ft | 382 kts | 54° |
| 2026-05-05 22:53 | 34.14114 | -118.06516 | 18751 ft | 385 kts | 55° |
| 2026-05-05 22:54 | 34.15626 | -118.03831 | 19272 ft | 387 kts | 55° |
| 2026-05-05 22:54 | 34.17139 | -118.01144 | 19767 ft | 391 kts | 55° |
| 2026-05-05 22:54 | 34.18657 | -117.98448 | 20269 ft | 394 kts | 55° |
| 2026-05-05 22:54 | 34.20198 | -117.95708 | 20758 ft | 397 kts | 54° |
| 2026-05-05 22:55 | 34.21749 | -117.92947 | 21269 ft | 399 kts | 54° |
| 2026-05-05 22:55 | 34.23305 | -117.90176 | 21783 ft | 400 kts | 55° |
| 2026-05-05 22:55 | 34.24883 | -117.87363 | 22286 ft | 403 kts | 55° |
| 2026-05-05 22:55 | 34.26439 | -117.84587 | 22772 ft | 405 kts | 55° |
| 2026-05-05 22:56 | 34.28023 | -117.81760 | 23282 ft | 406 kts | 55° |
| 2026-05-05 22:56 | 34.29610 | -117.78925 | 23729 ft | 409 kts | 55° |
| 2026-05-05 22:56 | 34.31191 | -117.76096 | 24133 ft | 412 kts | 55° |
| 2026-05-05 22:56 | 34.32797 | -117.73222 | 24604 ft | 413 kts | 55° |
| 2026-05-05 22:57 | 34.34395 | -117.70359 | 25099 ft | 413 kts | 54° |
| 2026-05-05 22:57 | 34.36057 | -117.67509 | 25695 ft | 409 kts | 53° |
| 2026-05-05 22:57 | 34.37701 | -117.64761 | 26213 ft | 408 kts | 52° |
| 2026-05-05 22:57 | 34.39357 | -117.61992 | 26732 ft | 407 kts | 52° |
| 2026-05-05 22:58 | 34.41022 | -117.59202 | 27230 ft | 405 kts | 52° |
| 2026-05-05 22:58 | 34.42678 | -117.56428 | 27770 ft | 403 kts | 52° |
| 2026-05-05 22:58 | 34.44303 | -117.53701 | 28246 ft | 402 kts | 52° |
| 2026-05-05 22:58 | 34.45959 | -117.50922 | 28682 ft | 402 kts | 52° |
| 2026-05-05 22:59 | 34.47583 | -117.48193 | 29117 ft | 400 kts | 52° |
| 2026-05-05 22:59 | 34.49194 | -117.45483 | 29563 ft | 398 kts | 52° |
| 2026-05-05 22:59 | 34.50797 | -117.42787 | 29952 ft | 396 kts | 51° |
| 2026-05-05 22:59 | 34.52405 | -117.40080 | 30256 ft | 397 kts | 51° |
| 2026-05-05 23:00 | 34.55651 | -117.34608 | 30815 ft | 398 kts | 52° |
| 2026-05-05 23:00 | 34.57258 | -117.31897 | 31135 ft | 397 kts | 52° |
| 2026-05-05 23:00 | 34.58851 | -117.29205 | 31425 ft | 397 kts | 52° |
| 2026-05-05 23:01 | 34.60472 | -117.26466 | 31749 ft | 395 kts | 52° |
| 2026-05-05 23:01 | 34.62063 | -117.23772 | 31970 ft | 396 kts | 52° |
| 2026-05-05 23:01 | 34.63657 | -117.21075 | 32138 ft | 399 kts | 52° |
| 2026-05-05 23:01 | 34.65276 | -117.18333 | 32293 ft | 401 kts | 52° |
| 2026-05-05 23:02 | 34.66907 | -117.15567 | 32517 ft | 402 kts | 52° |
| 2026-05-05 23:02 | 34.68532 | -117.12811 | 32723 ft | 402 kts | 52° |
| 2026-05-05 23:02 | 34.70156 | -117.10053 | 32969 ft | 401 kts | 52° |
| 2026-05-05 23:02 | 34.71780 | -117.07293 | 33189 ft | 401 kts | 52° |
| 2026-05-05 23:03 | 34.73387 | -117.04559 | 33377 ft | 402 kts | 53° |
| 2026-05-05 23:03 | 34.75016 | -117.01787 | 33543 ft | 404 kts | 52° |
| 2026-05-05 23:03 | 34.76638 | -116.99025 | 33732 ft | 405 kts | 53° |
| 2026-05-05 23:03 | 34.78278 | -116.96228 | 33962 ft | 405 kts | 53° |
| 2026-05-05 23:04 | 34.79915 | -116.93436 | 34177 ft | 405 kts | 53° |
| 2026-05-05 23:04 | 34.81556 | -116.90633 | 34339 ft | 407 kts | 52° |
| 2026-05-05 23:04 | 34.83199 | -116.87826 | 34508 ft | 408 kts | 53° |
| 2026-05-05 23:04 | 34.84840 | -116.85020 | 34702 ft | 409 kts | 53° |
| 2026-05-05 23:05 | 34.86487 | -116.82201 | 34891 ft | 410 kts | 52° |
| 2026-05-05 23:05 | 34.88139 | -116.79371 | 35062 ft | 411 kts | 52° |
| 2026-05-05 23:05 | 34.89776 | -116.76566 | 35245 ft | 411 kts | 53° |
| 2026-05-05 23:05 | 34.91428 | -116.73733 | 35415 ft | 412 kts | 52° |
| 2026-05-05 23:06 | 34.93274 | -116.71063 | 35575 ft | 411 kts | 45° |
| 2026-05-05 23:06 | 34.95223 | -116.68521 | 35734 ft | 412 kts | 45° |
| 2026-05-05 23:06 | 34.97181 | -116.65951 | 35906 ft | 412 kts | 45° |
| 2026-05-05 23:06 | 34.99116 | -116.63406 | 36057 ft | 413 kts | 45° |
| 2026-05-05 23:07 | 35.01068 | -116.60834 | 36194 ft | 414 kts | 45° |
| 2026-05-05 23:07 | 35.03012 | -116.58272 | 36354 ft | 414 kts | 45° |
| 2026-05-05 23:07 | 35.04971 | -116.55687 | 36497 ft | 415 kts | 45° |
| 2026-05-05 23:07 | 35.06925 | -116.53108 | 36635 ft | 415 kts | 45° |
| 2026-05-05 23:08 | 35.08875 | -116.50531 | 36736 ft | 417 kts | 45° |
| 2026-05-05 23:08 | 35.10840 | -116.47933 | 36851 ft | 417 kts | 45° |
| 2026-05-05 23:08 | 35.14743 | -116.42767 | 36902 ft | 412 kts | 45° |
| 2026-05-05 23:09 | 35.18642 | -116.37598 | 36899 ft | 417 kts | 45° |
| 2026-05-05 23:09 | 35.22563 | -116.32391 | 36915 ft | 415 kts | 46° |
| 2026-05-05 23:10 | 35.26462 | -116.27206 | 36902 ft | 416 kts | 46° |
| 2026-05-05 23:10 | 35.30366 | -116.22006 | 36912 ft | 415 kts | 46° |
| 2026-05-05 23:11 | 35.34282 | -116.16783 | 36897 ft | 415 kts | 46° |
| 2026-05-05 23:11 | 35.38162 | -116.11599 | 36901 ft | 413 kts | 46° |
| 2026-05-05 23:12 | 35.42045 | -116.06404 | 36908 ft | 412 kts | 46° |
| 2026-05-05 23:12 | 35.45902 | -116.01235 | 36913 ft | 412 kts | 46° |
| 2026-05-05 23:13 | 35.49735 | -115.96091 | 36930 ft | 409 kts | 46° |
| 2026-05-05 23:13 | 35.53580 | -115.90923 | 36925 ft | 411 kts | 46° |
| 2026-05-05 23:14 | 35.57421 | -115.85751 | 36923 ft | 410 kts | 46° |
| 2026-05-05 23:14 | 35.61270 | -115.80560 | 36914 ft | 410 kts | 46° |
| 2026-05-05 23:15 | 35.65074 | -115.75388 | 36912 ft | 409 kts | 46° |
| 2026-05-05 23:15 | 35.68846 | -115.70206 | 36922 ft | 407 kts | 47° |
| 2026-05-05 23:16 | 35.72624 | -115.65008 | 36925 ft | 407 kts | 47° |
| 2026-05-05 23:16 | 35.76392 | -115.59817 | 36916 ft | 407 kts | 47° |
| 2026-05-05 23:17 | 35.80167 | -115.54607 | 36923 ft | 408 kts | 46° |
| 2026-05-05 23:17 | 35.83937 | -115.49396 | 36928 ft | 407 kts | 47° |
| 2026-05-05 23:18 | 35.87694 | -115.44196 | 36919 ft | 407 kts | 47° |
| 2026-05-05 23:18 | 35.91467 | -115.38965 | 36938 ft | 409 kts | 47° |
| 2026-05-05 23:19 | 35.95246 | -115.33718 | 36932 ft | 408 kts | 47° |
| 2026-05-05 23:19 | 35.99008 | -115.28485 | 36906 ft | 408 kts | 48° |
| 2026-05-05 23:20 | 36.02770 | -115.23247 | 36901 ft | 409 kts | 48° |
| 2026-05-05 23:20 | 36.06529 | -115.17977 | 36892 ft | 410 kts | 51° |
| 2026-05-05 23:21 | 36.08115 | -115.15056 | 36903 ft | 412 kts | 62° |
| 2026-05-05 23:21 | 36.09269 | -115.11846 | 36902 ft | 411 kts | 69° |
| 2026-05-05 23:21 | 36.11288 | -115.05265 | 36882 ft | 410 kts | 68° |
| 2026-05-05 23:22 | 36.13320 | -114.98669 | 36875 ft | 411 kts | 69° |
| 2026-05-05 23:22 | 36.15348 | -114.92074 | 36877 ft | 413 kts | 68° |
| 2026-05-05 23:23 | 36.17384 | -114.85436 | 36865 ft | 411 kts | 68° |
| 2026-05-05 23:23 | 36.19405 | -114.78844 | 36860 ft | 410 kts | 68° |
| 2026-05-05 23:24 | 36.21429 | -114.72239 | 36875 ft | 413 kts | 68° |
| 2026-05-05 23:24 | 36.23454 | -114.65614 | 36867 ft | 412 kts | 68° |
| 2026-05-05 23:25 | 36.25466 | -114.59013 | 36859 ft | 413 kts | 68° |
| 2026-05-05 23:25 | 36.27497 | -114.52335 | 36881 ft | 413 kts | 68° |
| 2026-05-05 23:26 | 36.29517 | -114.45680 | 36869 ft | 413 kts | 68° |
| 2026-05-05 23:26 | 36.31527 | -114.39046 | 36886 ft | 413 kts | 68° |
| 2026-05-05 23:27 | 36.33544 | -114.32365 | 36879 ft | 412 kts | 68° |
| 2026-05-05 23:27 | 36.35550 | -114.25710 | 36876 ft | 414 kts | 69° |
| 2026-05-05 23:28 | 36.37557 | -114.19031 | 36880 ft | 416 kts | 69° |
| 2026-05-05 23:28 | 36.39575 | -114.12305 | 36886 ft | 415 kts | 68° |
| 2026-05-05 23:29 | 36.41576 | -114.05619 | 36901 ft | 413 kts | 69° |
| 2026-05-05 23:29 | 36.43563 | -113.98962 | 36893 ft | 414 kts | 69° |
| 2026-05-05 23:30 | 36.45558 | -113.92264 | 36913 ft | 413 kts | 69° |
| 2026-05-05 23:30 | 36.47540 | -113.85591 | 36912 ft | 413 kts | 69° |
| 2026-05-05 23:31 | 36.49516 | -113.78924 | 36932 ft | 414 kts | 69° |
| 2026-05-05 23:31 | 36.51500 | -113.72214 | 36929 ft | 414 kts | 69° |
| 2026-05-05 23:32 | 36.53467 | -113.65546 | 36935 ft | 417 kts | 69° |
| 2026-05-05 23:32 | 36.55455 | -113.58787 | 36934 ft | 416 kts | 69° |
| 2026-05-05 23:33 | 36.57437 | -113.52039 | 36943 ft | 415 kts | 69° |
| 2026-05-05 23:33 | 36.59402 | -113.45327 | 36955 ft | 415 kts | 69° |
| 2026-05-05 23:34 | 36.61370 | -113.38592 | 36954 ft | 414 kts | 69° |
| 2026-05-05 23:34 | 36.63330 | -113.31859 | 36958 ft | 418 kts | 70° |
| 2026-05-05 23:35 | 36.65300 | -113.25073 | 36951 ft | 417 kts | 70° |
| 2026-05-05 23:35 | 36.67256 | -113.18315 | 36955 ft | 417 kts | 70° |
| 2026-05-05 23:36 | 36.69220 | -113.11517 | 36958 ft | 417 kts | 70° |
| 2026-05-05 23:36 | 36.71178 | -113.04721 | 36946 ft | 416 kts | 70° |
| 2026-05-05 23:37 | 36.73124 | -112.97952 | 36951 ft | 416 kts | 70° |
| 2026-05-05 23:37 | 36.75055 | -112.91215 | 36952 ft | 417 kts | 70° |
| 2026-05-05 23:38 | 36.76995 | -112.84431 | 36932 ft | 417 kts | 70° |
| 2026-05-05 23:38 | 36.78949 | -112.77580 | 36937 ft | 419 kts | 70° |
| 2026-05-05 23:39 | 36.80881 | -112.70792 | 36946 ft | 420 kts | 70° |
| 2026-05-05 23:39 | 36.82831 | -112.63921 | 36937 ft | 420 kts | 70° |
| 2026-05-05 23:40 | 36.84759 | -112.57109 | 36939 ft | 420 kts | 70° |
| 2026-05-05 23:40 | 36.86692 | -112.50266 | 36946 ft | 419 kts | 70° |
| 2026-05-05 23:41 | 36.88629 | -112.43388 | 36949 ft | 422 kts | 70° |
| 2026-05-05 23:41 | 36.90554 | -112.36511 | 36938 ft | 420 kts | 70° |
| 2026-05-05 23:42 | 36.92487 | -112.29614 | 36952 ft | 421 kts | 71° |
| 2026-05-05 23:42 | 36.94417 | -112.22719 | 36947 ft | 422 kts | 71° |
| 2026-05-05 23:43 | 36.96346 | -112.15812 | 36944 ft | 422 kts | 71° |
| 2026-05-05 23:43 | 36.98277 | -112.08875 | 36933 ft | 421 kts | 71° |
| 2026-05-05 23:44 | 37.00207 | -112.01923 | 36951 ft | 424 kts | 71° |
| 2026-05-05 23:44 | 37.02132 | -111.94975 | 36944 ft | 422 kts | 71° |
| 2026-05-05 23:45 | 37.04040 | -111.88065 | 36943 ft | 424 kts | 71° |
| 2026-05-05 23:45 | 37.05963 | -111.81088 | 36940 ft | 425 kts | 71° |
| 2026-05-05 23:46 | 37.07876 | -111.74128 | 36942 ft | 424 kts | 71° |
| 2026-05-05 23:46 | 37.09788 | -111.67152 | 36945 ft | 426 kts | 71° |
| 2026-05-05 23:47 | 37.11711 | -111.60117 | 36928 ft | 427 kts | 71° |
| 2026-05-05 23:47 | 37.13619 | -111.53118 | 36929 ft | 426 kts | 71° |
| 2026-05-05 23:48 | 37.15522 | -111.46117 | 36925 ft | 429 kts | 71° |
| 2026-05-05 23:48 | 37.17437 | -111.39059 | 36930 ft | 429 kts | 71° |
| 2026-05-05 23:49 | 37.19349 | -111.31988 | 36914 ft | 430 kts | 71° |
| 2026-05-05 23:49 | 37.21285 | -111.24892 | 36890 ft | 433 kts | 67° |
| 2026-05-05 23:50 | 37.24372 | -111.18509 | 36909 ft | 432 kts | 49° |
| 2026-05-05 23:50 | 37.28201 | -111.12676 | 36905 ft | 429 kts | 50° |
| 2026-05-05 23:51 | 37.31959 | -111.06844 | 36908 ft | 431 kts | 50° |
| 2026-05-05 23:51 | 37.35718 | -111.00993 | 36897 ft | 430 kts | 50° |
| 2026-05-05 23:52 | 37.39450 | -110.95174 | 36898 ft | 428 kts | 50° |
| 2026-05-05 23:52 | 37.43162 | -110.89373 | 36904 ft | 429 kts | 49° |
| 2026-05-05 23:53 | 37.46899 | -110.83526 | 36894 ft | 427 kts | 50° |
| 2026-05-05 23:53 | 37.50602 | -110.77721 | 36884 ft | 427 kts | 49° |
| 2026-05-05 23:54 | 37.54312 | -110.71894 | 36893 ft | 426 kts | 49° |
| 2026-05-05 23:54 | 37.58002 | -110.66087 | 36891 ft | 424 kts | 49° |
| 2026-05-05 23:55 | 37.61672 | -110.60304 | 36899 ft | 423 kts | 49° |
| 2026-05-05 23:55 | 37.65340 | -110.54512 | 36896 ft | 423 kts | 49° |
| 2026-05-05 23:56 | 37.68979 | -110.48756 | 36912 ft | 423 kts | 50° |
| 2026-05-05 23:56 | 37.72649 | -110.42942 | 36913 ft | 424 kts | 49° |
| 2026-05-05 23:57 | 37.76300 | -110.37149 | 36913 ft | 421 kts | 50° |
| 2026-05-05 23:57 | 37.79927 | -110.31382 | 36910 ft | 422 kts | 50° |
| 2026-05-05 23:58 | 37.83591 | -110.25546 | 36913 ft | 423 kts | 50° |
| 2026-05-05 23:58 | 37.87195 | -110.19793 | 36914 ft | 421 kts | 50° |
| 2026-05-05 23:59 | 37.90830 | -110.13984 | 36921 ft | 424 kts | 50° |
| 2026-05-05 23:59 | 37.94512 | -110.08089 | 36926 ft | 424 kts | 50° |
| 2026-05-06 00:00 | 37.98161 | -110.02245 | 36927 ft | 423 kts | 48° |
| 2026-05-06 00:00 | 38.02573 | -109.97480 | 36936 ft | 418 kts | 28° |
| 2026-05-06 00:01 | 38.07589 | -109.93733 | 36933 ft | 417 kts | 28° |
| 2026-05-06 00:01 | 38.12603 | -109.89918 | 36922 ft | 418 kts | 28° |
| 2026-05-06 00:02 | 38.17559 | -109.86134 | 36913 ft | 417 kts | 28° |
| 2026-05-06 00:02 | 38.22551 | -109.82317 | 36909 ft | 421 kts | 28° |
| 2026-05-06 00:03 | 38.27543 | -109.78493 | 36919 ft | 419 kts | 28° |
| 2026-05-06 00:03 | 38.32494 | -109.74694 | 36892 ft | 415 kts | 28° |
| 2026-05-06 00:04 | 38.37396 | -109.70926 | 36906 ft | 413 kts | 28° |
| 2026-05-06 00:04 | 38.42334 | -109.67126 | 36920 ft | 416 kts | 28° |
| 2026-05-06 00:05 | 38.49701 | -109.61443 | 36900 ft | 412 kts | 28° |
| 2026-05-06 00:06 | 38.54592 | -109.57664 | 36920 ft | 413 kts | 28° |
| 2026-05-06 00:06 | 38.59495 | -109.53869 | 36922 ft | 410 kts | 28° |
| 2026-05-06 00:07 | 38.64372 | -109.50088 | 36910 ft | 409 kts | 28° |
| 2026-05-06 00:07 | 38.69182 | -109.46353 | 36885 ft | 407 kts | 28° |
| 2026-05-06 00:08 | 38.74014 | -109.42593 | 36902 ft | 407 kts | 28° |
| 2026-05-06 00:08 | 38.78827 | -109.38844 | 36875 ft | 405 kts | 28° |
| 2026-05-06 00:09 | 38.83660 | -109.35072 | 36896 ft | 405 kts | 28° |
| 2026-05-06 00:09 | 38.88430 | -109.31345 | 36870 ft | 405 kts | 28° |
| 2026-05-06 00:10 | 38.93248 | -109.27573 | 36872 ft | 403 kts | 28° |
| 2026-05-06 00:10 | 38.98002 | -109.23846 | 36854 ft | 402 kts | 28° |
| 2026-05-06 00:11 | 39.02771 | -109.20100 | 36881 ft | 402 kts | 29° |
| 2026-05-06 00:11 | 39.07558 | -109.16335 | 36879 ft | 400 kts | 29° |
| 2026-05-06 00:12 | 39.12294 | -109.12605 | 36889 ft | 402 kts | 29° |
| 2026-05-06 00:12 | 39.17062 | -109.08843 | 36894 ft | 404 kts | 28° |
| 2026-05-06 00:13 | 39.21835 | -109.05070 | 36896 ft | 401 kts | 29° |
| 2026-05-06 00:13 | 39.26600 | -109.01299 | 36890 ft | 402 kts | 29° |
| 2026-05-06 00:14 | 39.31359 | -108.97524 | 36901 ft | 400 kts | 28° |
| 2026-05-06 00:14 | 39.36057 | -108.93793 | 36905 ft | 399 kts | 28° |
| 2026-05-06 00:15 | 39.40796 | -108.90025 | 36918 ft | 402 kts | 28° |
| 2026-05-06 00:15 | 39.45552 | -108.86234 | 36898 ft | 400 kts | 28° |
| 2026-05-06 00:16 | 39.49782 | -108.81592 | 36927 ft | 408 kts | 47° |
| 2026-05-06 00:16 | 39.51411 | -108.78540 | 36925 ft | 413 kts | 58° |
| 2026-05-06 00:16 | 39.52692 | -108.75200 | 36927 ft | 414 kts | 60° |
| 2026-05-06 00:17 | 39.55248 | -108.68560 | 36911 ft | 413 kts | 60° |
| 2026-05-06 00:17 | 39.57820 | -108.61928 | 36919 ft | 415 kts | 60° |
| 2026-05-06 00:18 | 39.60415 | -108.55231 | 36935 ft | 417 kts | 60° |
| 2026-05-06 00:18 | 39.63030 | -108.48469 | 36941 ft | 429 kts | 60° |
| 2026-05-06 00:19 | 39.65732 | -108.41464 | 36673 ft | 448 kts | 60° |
| 2026-05-06 00:19 | 39.67155 | -108.37772 | 36197 ft | 464 kts | 60° |
| 2026-05-06 00:19 | 39.68609 | -108.33993 | 35727 ft | 468 kts | 60° |
| 2026-05-06 00:19 | 39.70040 | -108.30270 | 35220 ft | 467 kts | 60° |
| 2026-05-06 00:20 | 39.71480 | -108.26519 | 34684 ft | 459 kts | 60° |
| 2026-05-06 00:20 | 39.72872 | -108.22889 | 34156 ft | 452 kts | 59° |
| 2026-05-06 00:20 | 39.74273 | -108.19237 | 33636 ft | 451 kts | 60° |
| 2026-05-06 00:20 | 39.75668 | -108.15590 | 33130 ft | 456 kts | 60° |
| 2026-05-06 00:21 | 39.77039 | -108.11858 | 32632 ft | 455 kts | 63° |
| 2026-05-06 00:21 | 39.78283 | -108.08098 | 32115 ft | 452 kts | 62° |
| 2026-05-06 00:21 | 39.79528 | -108.04371 | 31625 ft | 450 kts | 63° |
| 2026-05-06 00:21 | 39.80767 | -108.00667 | 31121 ft | 449 kts | 62° |
| 2026-05-06 00:22 | 39.82002 | -107.96973 | 30633 ft | 448 kts | 63° |
| 2026-05-06 00:22 | 39.83225 | -107.93314 | 30142 ft | 446 kts | 63° |
| 2026-05-06 00:22 | 39.84460 | -107.89610 | 29654 ft | 446 kts | 63° |
| 2026-05-06 00:22 | 39.85682 | -107.85941 | 29171 ft | 443 kts | 63° |
| 2026-05-06 00:23 | 39.86910 | -107.82252 | 28676 ft | 440 kts | 63° |
| 2026-05-06 00:23 | 39.88112 | -107.78635 | 28205 ft | 438 kts | 63° |
| 2026-05-06 00:23 | 39.89320 | -107.74995 | 27719 ft | 437 kts | 63° |
| 2026-05-06 00:23 | 39.90514 | -107.71389 | 27252 ft | 433 kts | 64° |
| 2026-05-06 00:24 | 39.91702 | -107.67804 | 26769 ft | 432 kts | 64° |
| 2026-05-06 00:24 | 39.92874 | -107.64257 | 26296 ft | 430 kts | 64° |
| 2026-05-06 00:24 | 39.94048 | -107.60702 | 25824 ft | 429 kts | 64° |
| 2026-05-06 00:24 | 39.95228 | -107.57124 | 25361 ft | 426 kts | 64° |
| 2026-05-06 00:25 | 39.96385 | -107.53615 | 24876 ft | 426 kts | 64° |
| 2026-05-06 00:25 | 39.97546 | -107.50082 | 24419 ft | 424 kts | 64° |
| 2026-05-06 00:25 | 39.98695 | -107.46585 | 23954 ft | 422 kts | 64° |
| 2026-05-06 00:25 | 39.99848 | -107.43072 | 23479 ft | 419 kts | 65° |
| 2026-05-06 00:26 | 40.00972 | -107.39639 | 23038 ft | 416 kts | 65° |
| 2026-05-06 00:26 | 40.02114 | -107.36151 | 22577 ft | 415 kts | 65° |
| 2026-05-06 00:26 | 40.02914 | -107.32539 | 22157 ft | 414 kts | 80° |
| 2026-05-06 00:26 | 40.03339 | -107.28859 | 21735 ft | 413 kts | 81° |
| 2026-05-06 00:27 | 40.03744 | -107.25198 | 21273 ft | 412 kts | 81° |
| 2026-05-06 00:27 | 40.04148 | -107.21498 | 20812 ft | 407 kts | 81° |
| 2026-05-06 00:27 | 40.04544 | -107.17859 | 20365 ft | 407 kts | 81° |
| 2026-05-06 00:27 | 40.04935 | -107.14230 | 19927 ft | 404 kts | 81° |
| 2026-05-06 00:28 | 40.05321 | -107.10644 | 19484 ft | 401 kts | 81° |
| 2026-05-06 00:28 | 40.05700 | -107.07098 | 19048 ft | 391 kts | 81° |
| 2026-05-06 00:28 | 40.06070 | -107.03647 | 18624 ft | 379 kts | 81° |
| 2026-05-06 00:28 | 40.06428 | -107.00285 | 18222 ft | 368 kts | 81° |
| 2026-05-06 00:29 | 40.06774 | -106.97037 | 17827 ft | 358 kts | 81° |
| 2026-05-06 00:29 | 40.07110 | -106.93875 | 17563 ft | 345 kts | 81° |
| 2026-05-06 00:29 | 40.07432 | -106.90834 | 17204 ft | 337 kts | 81° |
| 2026-05-06 00:29 | 40.07750 | -106.87828 | 16842 ft | 330 kts | 82° |
| 2026-05-06 00:30 | 40.08055 | -106.84923 | 16491 ft | 324 kts | 81° |
| 2026-05-06 00:30 | 40.08337 | -106.82043 | 16128 ft | 321 kts | 89° |
| 2026-05-06 00:30 | 40.08158 | -106.79190 | 16088 ft | 305 kts | 98° |
| 2026-05-06 00:30 | 40.07894 | -106.76487 | 16075 ft | 294 kts | 98° |
| 2026-05-06 00:31 | 40.07634 | -106.73870 | 16078 ft | 296 kts | 98° |
| 2026-05-06 00:31 | 40.07363 | -106.71181 | 16103 ft | 298 kts | 98° |
| 2026-05-06 00:31 | 40.07093 | -106.68517 | 16103 ft | 298 kts | 98° |
| 2026-05-06 00:31 | 40.06820 | -106.65827 | 16109 ft | 300 kts | 98° |
| 2026-05-06 00:32 | 40.06542 | -106.63127 | 16106 ft | 300 kts | 101° |
| 2026-05-06 00:32 | 40.05744 | -106.60693 | 16136 ft | 290 kts | 136° |
| 2026-05-06 00:32 | 40.04140 | -106.59236 | 16173 ft | 278 kts | 169° |
| 2026-05-06 00:32 | 40.02280 | -106.58970 | 16174 ft | 267 kts | 187° |
| 2026-05-06 00:33 | 40.00429 | -106.59086 | 16126 ft | 264 kts | 190° |
| 2026-05-06 00:33 | 39.98621 | -106.59292 | 16131 ft | 264 kts | 192° |